sensor_id;sensor_type;location;lat;lon;timestamp;pressure;altitude;pressure_sealevel;temperature;humidity
46756;BME280;32506;52.826;-1.192;2022-08-03T00:02:15;100446.28;;;21.43;57.87
46756;BME280;32506;52.826;-1.192;2022-08-03T00:04:41;100437.09;;;21.39;57.59
46756;BME280;32506;52.826;-1.192;2022-08-03T00:07:06;100437.38;;;21.37;58.10
46756;BME280;32506;52.826;-1.192;2022-08-03T00:09:32;100434.16;;;21.35;57.94
46756;BME280;32506;52.826;-1.192;2022-08-03T00:11:57;100426.56;;;21.32;58.21
46756;BME280;32506;52.826;-1.192;2022-08-03T00:14:23;100425.75;;;21.32;57.85
46756;BME280;32506;52.826;-1.192;2022-08-03T00:16:48;100422.50;;;21.29;58.20
46756;BME280;32506;52.826;-1.192;2022-08-03T00:19:14;100423.91;;;21.27;58.33
46756;BME280;32506;52.826;-1.192;2022-08-03T00:21:39;100415.75;;;21.27;57.97
46756;BME280;32506;52.826;-1.192;2022-08-03T00:24:05;100421.47;;;21.25;58.52
46756;BME280;32506;52.826;-1.192;2022-08-03T00:26:30;100420.97;;;21.23;58.35
46756;BME280;32506;52.826;-1.192;2022-08-03T00:28:56;100422.84;;;21.23;58.50
46756;BME280;32506;52.826;-1.192;2022-08-03T00:31:21;100413.09;;;21.22;58.36
46756;BME280;32506;52.826;-1.192;2022-08-03T00:33:47;100419.63;;;21.21;58.73
46756;BME280;32506;52.826;-1.192;2022-08-03T00:36:13;100405.50;;;21.19;58.69
46756;BME280;32506;52.826;-1.192;2022-08-03T00:38:38;100402.78;;;21.19;58.89
46756;BME280;32506;52.826;-1.192;2022-08-03T00:41:04;100405.81;;;21.17;58.95
46756;BME280;32506;52.826;-1.192;2022-08-03T00:43:29;100404.72;;;21.18;58.66
46756;BME280;32506;52.826;-1.192;2022-08-03T00:45:55;100398.75;;;21.16;59.14
46756;BME280;32506;52.826;-1.192;2022-08-03T00:48:21;100398.75;;;21.16;59.10
46756;BME280;32506;52.826;-1.192;2022-08-03T00:50:47;100397.94;;;21.16;59.14
46756;BME280;32506;52.826;-1.192;2022-08-03T00:53:13;100397.16;;;21.15;59.37
46756;BME280;32506;52.826;-1.192;2022-08-03T00:55:40;100394.69;;;21.13;59.66
46756;BME280;32506;52.826;-1.192;2022-08-03T00:58:06;100390.38;;;21.12;59.36
46756;BME280;32506;52.826;-1.192;2022-08-03T01:00:34;100382.50;;;21.11;59.27
46756;BME280;32506;52.826;-1.192;2022-08-03T01:03:07;100374.63;;;21.09;58.84
46756;BME280;32506;52.826;-1.192;2022-08-03T01:05:51;100376.25;;;21.10;59.41
46756;BME280;32506;52.826;-1.192;2022-08-03T01:08:47;100371.91;;;21.09;59.17
46756;BME280;32506;52.826;-1.192;2022-08-03T01:11:25;100376.31;;;21.05;59.49
46756;BME280;32506;52.826;-1.192;2022-08-03T01:16:47;100377.19;;;21.01;59.62
46756;BME280;32506;52.826;-1.192;2022-08-03T01:24:29;100360.13;;;20.95;59.14
46756;BME280;32506;52.826;-1.192;2022-08-03T01:27:04;100359.59;;;20.93;59.26
46756;BME280;32506;52.826;-1.192;2022-08-03T01:30:03;100348.75;;;20.93;59.83
46756;BME280;32506;52.826;-1.192;2022-08-03T01:35:31;100350.69;;;20.87;59.75
46756;BME280;32506;52.826;-1.192;2022-08-03T01:38:02;100354.81;;;20.85;59.85
46756;BME280;32506;52.826;-1.192;2022-08-03T01:40:29;100353.16;;;20.84;59.70
46756;BME280;32506;52.826;-1.192;2022-08-03T01:42:59;100347.25;;;20.82;59.95
46756;BME280;32506;52.826;-1.192;2022-08-03T01:45:26;100346.41;;;20.81;59.97
46756;BME280;32506;52.826;-1.192;2022-08-03T01:47:53;100354.84;;;20.79;59.97
46756;BME280;32506;52.826;-1.192;2022-08-03T01:50:26;100351.63;;;20.77;60.50
46756;BME280;32506;52.826;-1.192;2022-08-03T01:52:53;100356.50;;;20.75;60.33
46756;BME280;32506;52.826;-1.192;2022-08-03T01:55:22;100350.28;;;20.75;60.36
46756;BME280;32506;52.826;-1.192;2022-08-03T01:57:49;100347.03;;;20.73;60.51
46756;BME280;32506;52.826;-1.192;2022-08-03T02:00:17;100354.69;;;20.71;60.23
46756;BME280;32506;52.826;-1.192;2022-08-03T02:02:46;100355.47;;;20.71;60.78
46756;BME280;32506;52.826;-1.192;2022-08-03T02:05:13;100349.50;;;20.69;60.72
46756;BME280;32506;52.826;-1.192;2022-08-03T02:07:41;100350.59;;;20.68;60.73
46756;BME280;32506;52.826;-1.192;2022-08-03T02:10:09;100359.81;;;20.67;60.78
46756;BME280;32506;52.826;-1.192;2022-08-03T02:12:36;100358.19;;;20.66;60.51
46756;BME280;32506;52.826;-1.192;2022-08-03T02:15:03;100348.44;;;20.65;60.68
46756;BME280;32506;52.826;-1.192;2022-08-03T02:17:31;100353.06;;;20.65;60.71
46756;BME280;32506;52.826;-1.192;2022-08-03T02:19:58;100356.88;;;20.63;60.61
46756;BME280;32506;52.826;-1.192;2022-08-03T02:22:26;100351.72;;;20.62;61.23
46756;BME280;32506;52.826;-1.192;2022-08-03T02:24:52;100342.25;;;20.59;61.08
46756;BME280;32506;52.826;-1.192;2022-08-03T02:27:24;100349.59;;;20.59;61.22
46756;BME280;32506;52.826;-1.192;2022-08-03T02:30:11;100353.09;;;20.59;61.15
46756;BME280;32506;52.826;-1.192;2022-08-03T02:32:39;100347.16;;;20.57;61.35
46756;BME280;32506;52.826;-1.192;2022-08-03T02:35:12;100342.81;;;20.56;60.75
46756;BME280;32506;52.826;-1.192;2022-08-03T02:37:45;100347.44;;;20.56;61.04
46756;BME280;32506;52.826;-1.192;2022-08-03T02:40:14;100350.44;;;20.54;60.88
46756;BME280;32506;52.826;-1.192;2022-08-03T02:42:41;100343.41;;;20.53;61.13
46756;BME280;32506;52.826;-1.192;2022-08-03T02:45:10;100342.56;;;20.53;60.76
46756;BME280;32506;52.826;-1.192;2022-08-03T02:47:40;100342.88;;;20.51;60.94
46756;BME280;32506;52.826;-1.192;2022-08-03T02:50:10;100352.09;;;20.50;60.86
46756;BME280;32506;52.826;-1.192;2022-08-03T02:52:37;100360.53;;;20.49;60.34
46756;BME280;32506;52.826;-1.192;2022-08-03T02:55:05;100356.19;;;20.48;60.52
46756;BME280;32506;52.826;-1.192;2022-08-03T02:57:33;100370.88;;;20.47;60.36
46756;BME280;32506;52.826;-1.192;2022-08-03T03:00:00;100366.53;;;20.45;60.55
46756;BME280;32506;52.826;-1.192;2022-08-03T03:02:27;100356.75;;;20.44;60.28
46756;BME280;32506;52.826;-1.192;2022-08-03T03:04:54;100361.41;;;20.44;60.24
46756;BME280;32506;52.826;-1.192;2022-08-03T03:07:21;100365.19;;;20.43;60.16
46756;BME280;32506;52.826;-1.192;2022-08-03T03:09:47;100369.00;;;20.42;60.04
46756;BME280;32506;52.826;-1.192;2022-08-03T03:12:13;100353.81;;;20.41;60.14
46756;BME280;32506;52.826;-1.192;2022-08-03T03:14:39;100352.47;;;20.38;60.01
46756;BME280;32506;52.826;-1.192;2022-08-03T03:17:06;100353.84;;;20.36;60.19
46756;BME280;32506;52.826;-1.192;2022-08-03T03:19:32;100356.56;;;20.36;60.19
46756;BME280;32506;52.826;-1.192;2022-08-03T03:22:00;100349.53;;;20.35;59.91
46756;BME280;32506;52.826;-1.192;2022-08-03T03:24:29;100356.03;;;20.34;60.18
46756;BME280;32506;52.826;-1.192;2022-08-03T03:26:58;100355.50;;;20.32;60.15
46756;BME280;32506;52.826;-1.192;2022-08-03T03:29:24;100363.63;;;20.32;59.93
46756;BME280;32506;52.826;-1.192;2022-08-03T03:31:50;100360.41;;;20.29;60.28
46756;BME280;32506;52.826;-1.192;2022-08-03T03:34:16;100363.13;;;20.29;59.91
46756;BME280;32506;52.826;-1.192;2022-08-03T03:36:42;100355.28;;;20.28;59.93
46756;BME280;32506;52.826;-1.192;2022-08-03T03:39:08;100345.50;;;20.27;60.21
46756;BME280;32506;52.826;-1.192;2022-08-03T03:41:35;100348.50;;;20.25;60.28
46756;BME280;32506;52.826;-1.192;2022-08-03T03:44:00;100346.09;;;20.24;60.26
46756;BME280;32506;52.826;-1.192;2022-08-03T03:46:26;100340.91;;;20.22;60.23
46756;BME280;32506;52.826;-1.192;2022-08-03T03:48:52;100349.34;;;20.21;60.07
46756;BME280;32506;52.826;-1.192;2022-08-03T03:51:17;100345.03;;;20.20;60.11
46756;BME280;32506;52.826;-1.192;2022-08-03T03:54:00;100352.34;;;20.19;60.13
46756;BME280;32506;52.826;-1.192;2022-08-03T03:56:26;100344.78;;;20.16;60.05
46756;BME280;32506;52.826;-1.192;2022-08-03T03:58:53;100352.91;;;20.16;60.02
46756;BME280;32506;52.826;-1.192;2022-08-03T04:01:19;100350.78;;;20.13;59.98
46756;BME280;32506;52.826;-1.192;2022-08-03T04:03:44;100354.59;;;20.12;59.74
46756;BME280;32506;52.826;-1.192;2022-08-03T04:06:11;100352.16;;;20.10;59.93
46756;BME280;32506;52.826;-1.192;2022-08-03T04:09:12;100351.09;;;20.06;60.18
46756;BME280;32506;52.826;-1.192;2022-08-03T04:11:59;100360.31;;;20.05;60.05
46756;BME280;32506;52.826;-1.192;2022-08-03T04:14:28;100360.59;;;20.04;60.09
46756;BME280;32506;52.826;-1.192;2022-08-03T04:17:00;100355.72;;;20.01;60.14
46756;BME280;32506;52.826;-1.192;2022-08-03T04:19:34;100348.69;;;20.00;60.10
46756;BME280;32506;52.826;-1.192;2022-08-03T04:22:06;100360.91;;;19.97;60.05
46756;BME280;32506;52.826;-1.192;2022-08-03T04:24:42;100359.28;;;19.96;59.85
46756;BME280;32506;52.826;-1.192;2022-08-03T04:27:11;100367.72;;;19.94;59.96
46756;BME280;32506;52.826;-1.192;2022-08-03T04:29:40;100367.16;;;19.92;60.27
46756;BME280;32506;52.826;-1.192;2022-08-03T04:32:07;100358.53;;;19.90;60.23
46756;BME280;32506;52.826;-1.192;2022-08-03T04:34:34;100361.53;;;19.89;60.08
46756;BME280;32506;52.826;-1.192;2022-08-03T04:37:02;100355.56;;;19.87;60.33
46756;BME280;32506;52.826;-1.192;2022-08-03T04:39:30;100369.41;;;19.85;60.12
46756;BME280;32506;52.826;-1.192;2022-08-03T04:42:00;100361.53;;;19.84;60.06
46756;BME280;32506;52.826;-1.192;2022-08-03T04:44:27;100357.22;;;19.83;60.33
46756;BME280;32506;52.826;-1.192;2022-08-03T04:46:53;100362.91;;;19.81;60.59
46756;BME280;32506;52.826;-1.192;2022-08-03T04:49:19;100358.53;;;19.80;60.57
46756;BME280;32506;52.826;-1.192;2022-08-03T04:51:47;100358.53;;;19.80;60.96
46756;BME280;32506;52.826;-1.192;2022-08-03T04:54:13;100359.91;;;19.77;60.95
46756;BME280;32506;52.826;-1.192;2022-08-03T04:56:40;100361.81;;;19.77;61.06
46756;BME280;32506;52.826;-1.192;2022-08-03T04:59:07;100360.19;;;19.76;61.23
46756;BME280;32506;52.826;-1.192;2022-08-03T05:01:33;100371.03;;;19.76;61.99
46756;BME280;32506;52.826;-1.192;2022-08-03T05:03:59;100362.09;;;19.75;61.98
46756;BME280;32506;52.826;-1.192;2022-08-03T05:06:24;100365.91;;;19.74;62.01
46756;BME280;32506;52.826;-1.192;2022-08-03T05:08:50;100370.50;;;19.74;62.13
46756;BME280;32506;52.826;-1.192;2022-08-03T05:11:16;100382.16;;;19.74;62.35
46756;BME280;32506;52.826;-1.192;2022-08-03T05:13:43;100391.38;;;19.73;62.23
46756;BME280;32506;52.826;-1.192;2022-08-03T05:16:08;100377.03;;;19.73;62.36
46756;BME280;32506;52.826;-1.192;2022-08-03T05:18:34;100379.75;;;19.73;62.45
46756;BME280;32506;52.826;-1.192;2022-08-03T05:21:00;100381.63;;;19.72;63.02
46756;BME280;32506;52.826;-1.192;2022-08-03T05:23:26;100383.25;;;19.73;62.73
46756;BME280;32506;52.826;-1.192;2022-08-03T05:25:51;100393.28;;;19.73;63.16
46756;BME280;32506;52.826;-1.192;2022-08-03T05:28:17;100389.75;;;19.72;63.26
46756;BME280;32506;52.826;-1.192;2022-08-03T05:30:43;100387.88;;;19.73;63.09
46756;BME280;32506;52.826;-1.192;2022-08-03T05:33:08;100384.06;;;19.74;63.09
46756;BME280;32506;52.826;-1.192;2022-08-03T05:35:35;100380.53;;;19.73;63.59
46756;BME280;32506;52.826;-1.192;2022-08-03T05:38:03;100387.59;;;19.74;63.25
46756;BME280;32506;52.826;-1.192;2022-08-03T05:40:28;100383.50;;;19.77;63.58
46756;BME280;32506;52.826;-1.192;2022-08-03T05:42:54;100392.44;;;19.77;63.30
46756;BME280;32506;52.826;-1.192;2022-08-03T05:45:20;100385.13;;;19.78;63.32
46756;BME280;32506;52.826;-1.192;2022-08-03T05:47:45;100393.00;;;19.79;63.30
46756;BME280;32506;52.826;-1.192;2022-08-03T05:50:12;100388.38;;;19.80;63.34
46756;BME280;32506;52.826;-1.192;2022-08-03T05:52:39;100385.41;;;19.82;63.54
46756;BME280;32506;52.826;-1.192;2022-08-03T05:55:06;100380.81;;;19.82;63.28
46756;BME280;32506;52.826;-1.192;2022-08-03T05:57:32;100388.66;;;19.84;63.16
46756;BME280;32506;52.826;-1.192;2022-08-03T05:59:58;100382.94;;;19.85;63.21
46756;BME280;32506;52.826;-1.192;2022-08-03T06:02:25;100389.72;;;19.88;63.22
46756;BME280;32506;52.826;-1.192;2022-08-03T06:04:50;100397.56;;;19.89;63.85
46756;BME280;32506;52.826;-1.192;2022-08-03T06:07:16;100388.06;;;19.92;63.17
46756;BME280;32506;52.826;-1.192;2022-08-03T06:09:41;100396.72;;;19.94;63.25
46756;BME280;32506;52.826;-1.192;2022-08-03T06:12:07;100400.50;;;19.98;63.38
46756;BME280;32506;52.826;-1.192;2022-08-03T06:14:33;100400.22;;;20.00;63.04
46756;BME280;32506;52.826;-1.192;2022-08-03T06:16:58;100399.66;;;20.03;62.77
46756;BME280;32506;52.826;-1.192;2022-08-03T06:19:23;100408.06;;;20.06;62.82
46756;BME280;32506;52.826;-1.192;2022-08-03T06:21:51;100405.56;;;20.10;63.23
46756;BME280;32506;52.826;-1.192;2022-08-03T06:24:16;100402.31;;;20.13;63.60
46756;BME280;32506;52.826;-1.192;2022-08-03T06:26:42;100404.47;;;20.16;64.04
46756;BME280;32506;52.826;-1.192;2022-08-03T06:29:07;100404.44;;;20.21;63.79
46756;BME280;32506;52.826;-1.192;2022-08-03T06:31:33;100405.78;;;20.24;63.84
46756;BME280;32506;52.826;-1.192;2022-08-03T06:33:58;100405.47;;;20.31;63.64
46756;BME280;32506;52.826;-1.192;2022-08-03T06:36:24;100413.53;;;20.36;63.72
46756;BME280;32506;52.826;-1.192;2022-08-03T06:38:58;100412.41;;;20.42;63.76
46756;BME280;32506;52.826;-1.192;2022-08-03T06:41:24;100409.69;;;20.47;63.72
46756;BME280;32506;52.826;-1.192;2022-08-03T06:43:50;100408.56;;;20.53;63.72
46756;BME280;32506;52.826;-1.192;2022-08-03T06:46:16;100400.63;;;20.57;63.86
46756;BME280;32506;52.826;-1.192;2022-08-03T06:48:41;100406.81;;;20.62;63.77
46756;BME280;32506;52.826;-1.192;2022-08-03T06:51:07;100409.25;;;20.69;63.92
46756;BME280;32506;52.826;-1.192;2022-08-03T06:53:33;100399.16;;;20.75;63.73
46756;BME280;32506;52.826;-1.192;2022-08-03T06:56:00;100407.25;;;20.80;63.45
46756;BME280;32506;52.826;-1.192;2022-08-03T06:58:25;100404.47;;;20.85;63.18
46756;BME280;32506;52.826;-1.192;2022-08-03T07:00:51;100408.25;;;20.89;63.37
46756;BME280;32506;52.826;-1.192;2022-08-03T07:03:17;100410.91;;;20.94;63.34
46756;BME280;32506;52.826;-1.192;2022-08-03T07:05:42;100411.66;;;21.00;62.68
46756;BME280;32506;52.826;-1.192;2022-08-03T07:08:10;100424.41;;;21.05;63.16
46756;BME280;32506;52.826;-1.192;2022-08-03T07:10:36;100418.94;;;21.10;62.55
46756;BME280;32506;52.826;-1.192;2022-08-03T07:13:02;100425.13;;;21.16;62.34
46756;BME280;32506;52.826;-1.192;2022-08-03T07:15:28;100421.53;;;21.20;62.30
46756;BME280;32506;52.826;-1.192;2022-08-03T07:17:53;100415.25;;;21.25;62.21
46756;BME280;32506;52.826;-1.192;2022-08-03T07:20:19;100415.97;;;21.31;62.06
46756;BME280;32506;52.826;-1.192;2022-08-03T07:22:44;100417.56;;;21.37;62.14
46756;BME280;32506;52.826;-1.192;2022-08-03T07:25:10;100416.91;;;21.45;61.95
46756;BME280;32506;52.826;-1.192;2022-08-03T07:27:36;100427.44;;;21.52;62.05
46756;BME280;32506;52.826;-1.192;2022-08-03T07:30:04;100427.91;;;21.59;62.07
46756;BME280;32506;52.826;-1.192;2022-08-03T07:32:30;100431.13;;;21.66;61.54
46756;BME280;32506;52.826;-1.192;2022-08-03T07:35:06;100438.31;;;21.76;61.59
46756;BME280;32506;52.826;-1.192;2022-08-03T07:37:32;100442.88;;;21.81;61.33
46756;BME280;32506;52.826;-1.192;2022-08-03T07:39:59;100442.81;;;21.86;60.77
46756;BME280;32506;52.826;-1.192;2022-08-03T07:42:28;100434.59;;;21.91;60.84
46756;BME280;32506;52.826;-1.192;2022-08-03T07:44:55;100439.13;;;21.95;60.52
46756;BME280;32506;52.826;-1.192;2022-08-03T07:47:29;100439.91;;;22.01;60.60
46756;BME280;32506;52.826;-1.192;2022-08-03T07:49:55;100440.94;;;22.05;60.12
46756;BME280;32506;52.826;-1.192;2022-08-03T07:52:30;100450.63;;;22.11;60.03
46756;BME280;32506;52.826;-1.192;2022-08-03T07:55:18;100454.91;;;22.18;60.16
46756;BME280;32506;52.826;-1.192;2022-08-03T07:58:02;100445.78;;;22.27;59.92
46756;BME280;32506;52.826;-1.192;2022-08-03T08:00:40;100453.56;;;22.34;59.75
46756;BME280;32506;52.826;-1.192;2022-08-03T08:03:28;100461.41;;;22.41;59.49
46756;BME280;32506;52.826;-1.192;2022-08-03T08:06:40;100455.59;;;22.48;59.61
46756;BME280;32506;52.826;-1.192;2022-08-03T08:09:52;100459.31;;;22.52;59.04
46756;BME280;32506;52.826;-1.192;2022-08-03T08:12:55;100464.78;;;22.52;58.83
46756;BME280;32506;52.826;-1.192;2022-08-03T08:15:21;100471.53;;;22.54;58.55
46756;BME280;32506;52.826;-1.192;2022-08-03T08:17:51;100473.47;;;22.54;58.21
46756;BME280;32506;52.826;-1.192;2022-08-03T08:20:23;100486.25;;;22.53;58.10
46756;BME280;32506;52.826;-1.192;2022-08-03T08:22:49;100485.47;;;22.53;57.83
46756;BME280;32506;52.826;-1.192;2022-08-03T08:25:15;100484.97;;;22.51;57.98
46756;BME280;32506;52.826;-1.192;2022-08-03T08:27:45;100485.53;;;22.48;57.98
46756;BME280;32506;52.826;-1.192;2022-08-03T08:30:12;100485.03;;;22.45;58.13
46756;BME280;32506;52.826;-1.192;2022-08-03T08:32:38;100473.63;;;22.43;58.21
46756;BME280;32506;52.826;-1.192;2022-08-03T08:35:05;100484.00;;;22.41;58.04
46756;BME280;32506;52.826;-1.192;2022-08-03T08:37:31;100491.16;;;22.37;58.03
46756;BME280;32506;52.826;-1.192;2022-08-03T08:39:58;100491.41;;;22.36;57.94
46756;BME280;32506;52.826;-1.192;2022-08-03T08:42:24;100485.44;;;22.34;58.03
46756;BME280;32506;52.826;-1.192;2022-08-03T08:44:50;100483.31;;;22.31;57.95
46756;BME280;32506;52.826;-1.192;2022-08-03T08:47:25;100485.22;;;22.30;57.78
46756;BME280;32506;52.826;-1.192;2022-08-03T08:49:54;100492.34;;;22.26;58.38
46756;BME280;32506;52.826;-1.192;2022-08-03T08:52:24;100500.00;;;22.24;57.88
46756;BME280;32506;52.826;-1.192;2022-08-03T08:55:04;100504.13;;;22.21;57.63
46756;BME280;32506;52.826;-1.192;2022-08-03T08:57:36;100506.31;;;22.19;58.03
46756;BME280;32506;52.826;-1.192;2022-08-03T09:00:07;100504.19;;;22.16;58.45
46756;BME280;32506;52.826;-1.192;2022-08-03T09:02:35;100513.75;;;22.13;58.05
46756;BME280;32506;52.826;-1.192;2022-08-03T09:05:02;100508.59;;;22.12;58.04
46756;BME280;32506;52.826;-1.192;2022-08-03T09:07:28;100510.00;;;22.09;57.55
46756;BME280;32506;52.826;-1.192;2022-08-03T09:09:54;100526.91;;;22.06;57.67
46756;BME280;32506;52.826;-1.192;2022-08-03T09:12:20;100522.03;;;22.03;57.64
46756;BME280;32506;52.826;-1.192;2022-08-03T09:14:46;100517.69;;;22.02;58.15
46756;BME280;32506;52.826;-1.192;2022-08-03T09:17:11;100504.38;;;22.01;58.09
46756;BME280;32506;52.826;-1.192;2022-08-03T09:19:37;100506.00;;;22.02;57.34
46756;BME280;32506;52.826;-1.192;2022-08-03T09:22:07;100516.59;;;22.03;56.99
46756;BME280;32506;52.826;-1.192;2022-08-03T09:24:34;100500.78;;;22.05;57.99
46756;BME280;32506;52.826;-1.192;2022-08-03T09:27:00;100507.28;;;22.09;57.59
46756;BME280;32506;52.826;-1.192;2022-08-03T09:29:26;100500.13;;;22.13;57.70
46756;BME280;32506;52.826;-1.192;2022-08-03T09:32:02;100501.97;;;22.18;57.86
46756;BME280;32506;52.826;-1.192;2022-08-03T09:34:28;100503.84;;;22.23;58.05
46756;BME280;32506;52.826;-1.192;2022-08-03T09:36:54;100508.09;;;22.29;58.07
46756;BME280;32506;52.826;-1.192;2022-08-03T09:39:23;100496.88;;;22.36;58.51
46756;BME280;32506;52.826;-1.192;2022-08-03T09:48:48;100502.16;;;22.65;58.72
46756;BME280;32506;52.826;-1.192;2022-08-03T09:51:16;100507.75;;;22.74;59.02
46756;BME280;32506;52.826;-1.192;2022-08-03T09:53:49;100505.97;;;22.83;59.24
46756;BME280;32506;52.826;-1.192;2022-08-03T09:56:19;100504.19;;;22.92;59.18
46756;BME280;32506;52.826;-1.192;2022-08-03T09:58:46;100507.56;;;23.03;59.16
46756;BME280;32506;52.826;-1.192;2022-08-03T10:01:43;100498.03;;;23.20;59.16
46756;BME280;32506;52.826;-1.192;2022-08-03T10:04:28;100510.06;;;23.33;59.17
46756;BME280;32506;52.826;-1.192;2022-08-03T10:07:23;100501.50;;;23.53;59.23
46756;BME280;32506;52.826;-1.192;2022-08-03T10:09:57;100509.19;;;23.65;59.42
46756;BME280;32506;52.826;-1.192;2022-08-03T10:12:24;100509.50;;;23.77;59.64
46756;BME280;32506;52.826;-1.192;2022-08-03T10:14:53;100503.56;;;23.89;59.60
46756;BME280;32506;52.826;-1.192;2022-08-03T10:17:20;100498.69;;;24.00;59.18
46756;BME280;32506;52.826;-1.192;2022-08-03T10:19:46;100500.91;;;24.12;57.58
46756;BME280;32506;52.826;-1.192;2022-08-03T10:22:15;100508.38;;;24.20;56.44
46756;BME280;32506;52.826;-1.192;2022-08-03T10:24:55;100506.22;;;24.31;56.42
46756;BME280;32506;52.826;-1.192;2022-08-03T10:27:24;100509.00;;;24.40;56.47
46756;BME280;32506;52.826;-1.192;2022-08-03T10:29:55;100507.69;;;24.51;55.17
46756;BME280;32506;52.826;-1.192;2022-08-03T10:32:30;100505.00;;;24.60;54.19
46756;BME280;32506;52.826;-1.192;2022-08-03T10:35:12;100503.16;;;24.69;53.48
46756;BME280;32506;52.826;-1.192;2022-08-03T10:37:51;100514.66;;;24.80;54.06
46756;BME280;32506;52.826;-1.192;2022-08-03T10:40:28;100512.47;;;24.91;52.36
46756;BME280;32506;52.826;-1.192;2022-08-03T10:43:00;100517.19;;;24.99;52.14
46756;BME280;32506;52.826;-1.192;2022-08-03T10:45:27;100521.31;;;25.10;52.69
46756;BME280;32506;52.826;-1.192;2022-08-03T10:47:55;100504.00;;;25.24;51.85
46756;BME280;32506;52.826;-1.192;2022-08-03T10:50:25;100502.94;;;25.34;51.21
46756;BME280;32506;52.826;-1.192;2022-08-03T10:55:32;100512.66;;;25.49;50.96
46756;BME280;32506;52.826;-1.192;2022-08-03T11:01:12;100506.78;;;25.64;49.51
46756;BME280;32506;52.826;-1.192;2022-08-03T11:06:19;100494.59;;;25.79;48.71
46756;BME280;32506;52.826;-1.192;2022-08-03T11:08:49;100495.25;;;25.85;47.67
46756;BME280;32506;52.826;-1.192;2022-08-03T11:11:39;100492.38;;;25.90;47.86
46756;BME280;32506;52.826;-1.192;2022-08-03T11:14:10;100494.63;;;25.96;48.21
46756;BME280;32506;52.826;-1.192;2022-08-03T11:16:45;100495.94;;;25.99;47.78
46756;BME280;32506;52.826;-1.192;2022-08-03T11:19:15;100489.22;;;26.05;48.78
46756;BME280;32506;52.826;-1.192;2022-08-03T11:35:16;100492.31;;;26.56;44.59
46756;BME280;32506;52.826;-1.192;2022-08-03T11:40:36;100488.09;;;26.59;44.15
46756;BME280;32506;52.826;-1.192;2022-08-03T11:43:07;100493.56;;;26.59;43.49
46756;BME280;32506;52.826;-1.192;2022-08-03T11:45:36;100499.38;;;26.57;43.11
46756;BME280;32506;52.826;-1.192;2022-08-03T11:48:15;100492.44;;;26.60;43.01
46756;BME280;32506;52.826;-1.192;2022-08-03T11:50:42;100492.44;;;26.60;42.72
46756;BME280;32506;52.826;-1.192;2022-08-03T11:53:14;100490.03;;;26.67;42.53
46756;BME280;32506;52.826;-1.192;2022-08-03T11:56:02;100491.00;;;26.80;42.73
46756;BME280;32506;52.826;-1.192;2022-08-03T11:58:29;100488.72;;;26.91;41.96
46756;BME280;32506;52.826;-1.192;2022-08-03T12:01:07;100492.41;;;27.04;41.67
46756;BME280;32506;52.826;-1.192;2022-08-03T12:03:35;100489.97;;;27.11;40.39
46756;BME280;32506;52.826;-1.192;2022-08-03T12:06:01;100493.03;;;27.18;38.98
46756;BME280;32506;52.826;-1.192;2022-08-03T12:08:30;100485.25;;;27.29;37.32
46756;BME280;32506;52.826;-1.192;2022-08-03T12:11:18;100511.88;;;27.37;36.11
46756;BME280;32506;52.826;-1.192;2022-08-03T12:13:48;100499.56;;;27.43;35.29
46756;BME280;32506;52.826;-1.192;2022-08-03T12:16:43;100500.34;;;27.53;36.39
46756;BME280;32506;52.826;-1.192;2022-08-03T12:25:59;100513.16;;;28.00;34.61
46756;BME280;32506;52.826;-1.192;2022-08-03T12:28:53;100512.03;;;28.09;34.80
46756;BME280;32506;52.826;-1.192;2022-08-03T12:34:51;100501.31;;;28.38;35.75
46756;BME280;32506;52.826;-1.192;2022-08-03T12:37:36;100496.00;;;28.54;34.69
46756;BME280;32506;52.826;-1.192;2022-08-03T12:40:06;100502.66;;;28.74;34.23
46756;BME280;32506;52.826;-1.192;2022-08-03T12:42:37;100505.22;;;28.91;33.91
46756;BME280;32506;52.826;-1.192;2022-08-03T12:45:24;100504.22;;;29.08;33.53
46756;BME280;32506;52.826;-1.192;2022-08-03T12:47:57;100502.03;;;29.14;33.20
46756;BME280;32506;52.826;-1.192;2022-08-03T12:50:45;100505.50;;;29.23;33.22
46756;BME280;32506;52.826;-1.192;2022-08-03T12:53:28;100509.81;;;29.33;33.26
46756;BME280;32506;52.826;-1.192;2022-08-03T12:56:20;100505.09;;;29.46;32.82
46756;BME280;32506;52.826;-1.192;2022-08-03T12:58:46;100496.75;;;29.55;32.47
46756;BME280;32506;52.826;-1.192;2022-08-03T13:01:17;100506.25;;;29.70;33.12
46756;BME280;32506;52.826;-1.192;2022-08-03T13:03:55;100497.53;;;29.80;32.17
46756;BME280;32506;52.826;-1.192;2022-08-03T13:06:23;100498.78;;;29.83;31.68
46756;BME280;32506;52.826;-1.192;2022-08-03T13:09:04;100497.00;;;29.87;31.38
46756;BME280;32506;52.826;-1.192;2022-08-03T13:11:29;100489.38;;;29.84;31.56
46756;BME280;32506;52.826;-1.192;2022-08-03T13:14:18;100489.66;;;29.91;31.13
46756;BME280;32506;52.826;-1.192;2022-08-03T13:16:49;100486.03;;;30.03;30.89
46756;BME280;32506;52.826;-1.192;2022-08-03T13:19:15;100487.19;;;30.14;30.85
46756;BME280;32506;52.826;-1.192;2022-08-03T13:21:41;100482.09;;;30.16;30.76
46756;BME280;32506;52.826;-1.192;2022-08-03T13:24:07;100481.44;;;30.19;30.37
46756;BME280;32506;52.826;-1.192;2022-08-03T13:26:33;100477.25;;;30.25;30.44
46756;BME280;32506;52.826;-1.192;2022-08-03T13:28:59;100490.78;;;30.30;30.34
46756;BME280;32506;52.826;-1.192;2022-08-03T13:31:27;100485.84;;;30.36;30.26
46756;BME280;32506;52.826;-1.192;2022-08-03T13:33:55;100487.56;;;30.41;29.71
46756;BME280;32506;52.826;-1.192;2022-08-03T13:36:36;100498.00;;;30.48;29.45
46756;BME280;32506;52.826;-1.192;2022-08-03T13:40:10;100495.81;;;30.53;28.86
46756;BME280;32506;52.826;-1.192;2022-08-03T13:43:14;100486.97;;;30.48;30.00
46756;BME280;32506;52.826;-1.192;2022-08-03T13:59:12;100484.06;;;30.56;29.90
46756;BME280;32506;52.826;-1.192;2022-08-03T14:02:24;100484.97;;;30.60;29.53
46756;BME280;32506;52.826;-1.192;2022-08-03T14:05:30;100478.75;;;30.63;29.19